sensor_id;sensor_type;location;lat;lon;timestamp;pressure;altitude;pressure_sealevel;temperature;humidity
59063;BME280;44851;45.648;9.004;2023-01-31T00:01:26;99152.00;;;1.69;54.91
59063;BME280;44851;45.648;9.004;2023-01-31T00:03:53;99163.44;;;1.80;56.03
59063;BME280;44851;45.648;9.004;2023-01-31T00:06:21;99161.06;;;1.77;55.99
59063;BME280;44851;45.648;9.004;2023-01-31T00:08:48;99157.47;;;1.79;55.52
59063;BME280;44851;45.648;9.004;2023-01-31T00:11:16;99169.09;;;1.86;55.68
59063;BME280;44851;45.648;9.004;2023-01-31T00:13:42;99175.47;;;1.79;56.51
59063;BME280;44851;45.648;9.004;2023-01-31T00:16:09;99185.88;;;1.93;55.84
59063;BME280;44851;45.648;9.004;2023-01-31T00:18:35;99173.44;;;2.02;56.23
59063;BME280;44851;45.648;9.004;2023-01-31T00:21:13;99170.22;;;2.14;55.10
59063;BME280;44851;45.648;9.004;2023-01-31T00:23:39;99180.25;;;2.18;55.33
59063;BME280;44851;45.648;9.004;2023-01-31T00:26:10;99175.44;;;2.28;55.08
59063;BME280;44851;45.648;9.004;2023-01-31T00:28:36;99182.84;;;1.85;55.60
59063;BME280;44851;45.648;9.004;2023-01-31T00:31:02;99195.72;;;1.85;56.22
59063;BME280;44851;45.648;9.004;2023-01-31T00:33:28;99188.00;;;1.85;56.40
59063;BME280;44851;45.648;9.004;2023-01-31T00:35:53;99208.09;;;1.94;56.73
59063;BME280;44851;45.648;9.004;2023-01-31T00:38:18;99210.56;;;1.96;56.94
59063;BME280;44851;45.648;9.004;2023-01-31T00:40:51;99209.63;;;2.30;56.40
59063;BME280;44851;45.648;9.004;2023-01-31T00:43:17;99227.53;;;2.16;57.80
59063;BME280;44851;45.648;9.004;2023-01-31T00:45:42;99234.97;;;2.05;58.41
59063;BME280;44851;45.648;9.004;2023-01-31T00:48:07;99233.03;;;2.26;58.86
59063;BME280;44851;45.648;9.004;2023-01-31T00:50:33;99232.09;;;2.11;58.83
59063;BME280;44851;45.648;9.004;2023-01-31T00:52:58;99233.66;;;1.97;60.06
59063;BME280;44851;45.648;9.004;2023-01-31T00:55:23;99231.38;;;1.91;60.71
59063;BME280;44851;45.648;9.004;2023-01-31T00:57:49;99242.41;;;1.93;60.50
59063;BME280;44851;45.648;9.004;2023-01-31T01:00:14;99249.06;;;1.97;60.91
59063;BME280;44851;45.648;9.004;2023-01-31T01:02:40;99261.94;;;1.80;62.04
59063;BME280;44851;45.648;9.004;2023-01-31T01:05:06;99258.00;;;1.73;61.31
59063;BME280;44851;45.648;9.004;2023-01-31T01:07:31;99261.09;;;1.80;61.63
59063;BME280;44851;45.648;9.004;2023-01-31T01:09:56;99267.38;;;1.74;62.59
59063;BME280;44851;45.648;9.004;2023-01-31T01:12:22;99273.88;;;1.81;62.36
59063;BME280;44851;45.648;9.004;2023-01-31T01:14:47;99268.66;;;1.83;62.53
59063;BME280;44851;45.648;9.004;2023-01-31T01:17:13;99295.03;;;1.69;63.12
59063;BME280;44851;45.648;9.004;2023-01-31T01:19:38;99295.97;;;1.68;63.85
59063;BME280;44851;45.648;9.004;2023-01-31T01:22:03;99285.59;;;1.69;63.31
59063;BME280;44851;45.648;9.004;2023-01-31T01:24:29;99302.53;;;1.74;63.10
59063;BME280;44851;45.648;9.004;2023-01-31T01:26:54;99304.56;;;1.84;63.36
59063;BME280;44851;45.648;9.004;2023-01-31T01:29:19;99303.97;;;1.79;63.99
59063;BME280;44851;45.648;9.004;2023-01-31T01:31:45;99320.44;;;1.92;63.06
59063;BME280;44851;45.648;9.004;2023-01-31T01:34:14;99311.53;;;1.82;63.75
59063;BME280;44851;45.648;9.004;2023-01-31T01:36:40;99329.88;;;1.75;64.41
59063;BME280;44851;45.648;9.004;2023-01-31T01:39:09;99325.03;;;1.68;64.49
59063;BME280;44851;45.648;9.004;2023-01-31T01:41:35;99327.16;;;1.78;64.85
59063;BME280;44851;45.648;9.004;2023-01-31T01:44:39;99336.31;;;1.83;64.85
59063;BME280;44851;45.648;9.004;2023-01-31T01:46:48;99330.72;;;1.75;64.87
59063;BME280;44851;45.648;9.004;2023-01-31T01:51:41;99342.94;;;1.53;65.68
59063;BME280;44851;45.648;9.004;2023-01-31T01:54:15;99339.41;;;1.55;65.28
59063;BME280;44851;45.648;9.004;2023-01-31T01:56:46;99354.66;;;1.76;64.78
59063;BME280;44851;45.648;9.004;2023-01-31T01:59:34;99348.50;;;1.43;64.94
59063;BME280;44851;45.648;9.004;2023-01-31T02:02:02;99355.56;;;1.40;66.52
59063;BME280;44851;45.648;9.004;2023-01-31T02:04:32;99353.38;;;1.50;66.43
59063;BME280;44851;45.648;9.004;2023-01-31T02:06:58;99372.94;;;1.69;66.62
59063;BME280;44851;45.648;9.004;2023-01-31T02:09:30;99372.94;;;1.52;66.01
59063;BME280;44851;45.648;9.004;2023-01-31T02:11:58;99382.84;;;1.60;65.94
59063;BME280;44851;45.648;9.004;2023-01-31T02:14:23;99376.19;;;1.56;66.45
59063;BME280;44851;45.648;9.004;2023-01-31T02:16:49;99379.09;;;1.67;66.76
59063;BME280;44851;45.648;9.004;2023-01-31T02:19:43;99380.59;;;1.71;65.91
59063;BME280;44851;45.648;9.004;2023-01-31T02:36:09;99385.13;;;1.83;64.63
59063;BME280;44851;45.648;9.004;2023-01-31T02:41:31;99397.56;;;1.56;66.20
59063;BME280;44851;45.648;9.004;2023-01-31T02:44:20;99403.53;;;1.57;66.39
59063;BME280;44851;45.648;9.004;2023-01-31T02:52:52;99406.34;;;1.69;65.61
59063;BME280;44851;45.648;9.004;2023-01-31T02:55:25;99399.16;;;1.59;65.68
59063;BME280;44851;45.648;9.004;2023-01-31T02:58:12;99412.47;;;1.50;66.32
59063;BME280;44851;45.648;9.004;2023-01-31T03:00:41;99408.69;;;1.57;65.71
59063;BME280;44851;45.648;9.004;2023-01-31T03:03:21;99413.53;;;1.63;65.63
59063;BME280;44851;45.648;9.004;2023-01-31T03:08:55;99418.06;;;1.58;65.46
59063;BME280;44851;45.648;9.004;2023-01-31T03:11:27;99414.63;;;1.76;64.70
59063;BME280;44851;45.648;9.004;2023-01-31T03:22:30;99438.72;;;1.55;65.50
59063;BME280;44851;45.648;9.004;2023-01-31T03:24:57;99433.25;;;1.43;66.01
59063;BME280;44851;45.648;9.004;2023-01-31T03:27:24;99441.47;;;1.52;65.83
59063;BME280;44851;45.648;9.004;2023-01-31T03:29:52;99446.06;;;1.45;66.18
59063;BME280;44851;45.648;9.004;2023-01-31T03:32:34;99437.31;;;1.30;64.93
59063;BME280;44851;45.648;9.004;2023-01-31T03:35:02;99449.13;;;1.34;66.26
59063;BME280;44851;45.648;9.004;2023-01-31T03:37:45;99444.19;;;1.30;66.34
59063;BME280;44851;45.648;9.004;2023-01-31T03:40:15;99455.56;;;1.24;66.20
59063;BME280;44851;45.648;9.004;2023-01-31T03:42:49;99449.25;;;1.31;65.92
59063;BME280;44851;45.648;9.004;2023-01-31T03:45:27;99449.66;;;1.22;65.28
59063;BME280;44851;45.648;9.004;2023-01-31T03:47:56;99458.25;;;1.21;65.42
59063;BME280;44851;45.648;9.004;2023-01-31T03:50:27;99448.28;;;1.15;65.61
59063;BME280;44851;45.648;9.004;2023-01-31T03:53:05;99457.50;;;1.19;64.82
59063;BME280;44851;45.648;9.004;2023-01-31T03:55:39;99460.47;;;1.10;65.70
59063;BME280;44851;45.648;9.004;2023-01-31T03:58:07;99466.13;;;1.18;66.48
59063;BME280;44851;45.648;9.004;2023-01-31T04:00:37;99474.63;;;1.00;66.04
59063;BME280;44851;45.648;9.004;2023-01-31T04:03:19;99473.25;;;1.11;66.42
59063;BME280;44851;45.648;9.004;2023-01-31T04:05:47;99476.16;;;1.04;66.56
59063;BME280;44851;45.648;9.004;2023-01-31T04:08:13;99474.63;;;1.00;66.09
59063;BME280;44851;45.648;9.004;2023-01-31T04:10:39;99473.53;;;1.05;67.39
59063;BME280;44851;45.648;9.004;2023-01-31T04:13:04;99477.16;;;1.20;65.51
59063;BME280;44851;45.648;9.004;2023-01-31T04:15:30;99485.88;;;1.16;65.25
59063;BME280;44851;45.648;9.004;2023-01-31T04:17:55;99480.63;;;1.19;64.83
59063;BME280;44851;45.648;9.004;2023-01-31T04:20:20;99482.41;;;1.17;65.65
59063;BME280;44851;45.648;9.004;2023-01-31T04:22:46;99482.41;;;1.17;64.76
59063;BME280;44851;45.648;9.004;2023-01-31T04:25:11;99484.50;;;1.09;64.89
59063;BME280;44851;45.648;9.004;2023-01-31T04:27:36;99485.53;;;1.05;64.99
59063;BME280;44851;45.648;9.004;2023-01-31T04:30:03;99464.66;;;1.12;64.69
59063;BME280;44851;45.648;9.004;2023-01-31T04:32:29;99467.28;;;1.11;64.25
59063;BME280;44851;45.648;9.004;2023-01-31T04:34:54;99474.34;;;1.06;65.16
59063;BME280;44851;45.648;9.004;2023-01-31T04:37:20;99474.50;;;1.03;64.27
59063;BME280;44851;45.648;9.004;2023-01-31T04:39:45;99484.41;;;0.91;64.91
59063;BME280;44851;45.648;9.004;2023-01-31T04:42:10;99483.63;;;0.89;65.51
59063;BME280;44851;45.648;9.004;2023-01-31T04:44:36;99481.47;;;0.80;65.53
59063;BME280;44851;45.648;9.004;2023-01-31T04:47:01;99483.88;;;0.83;65.21
59063;BME280;44851;45.648;9.004;2023-01-31T04:49:26;99481.31;;;0.83;65.08
59063;BME280;44851;45.648;9.004;2023-01-31T04:51:52;99474.38;;;0.85;64.77
59063;BME280;44851;45.648;9.004;2023-01-31T04:54:17;99488.06;;;0.86;65.23
59063;BME280;44851;45.648;9.004;2023-01-31T04:56:42;99488.56;;;0.74;64.49
59063;BME280;44851;45.648;9.004;2023-01-31T04:59:08;99490.25;;;0.75;65.13
59063;BME280;44851;45.648;9.004;2023-01-31T05:01:33;99495.81;;;0.84;64.67
59063;BME280;44851;45.648;9.004;2023-01-31T05:03:58;99504.03;;;0.72;64.92
59063;BME280;44851;45.648;9.004;2023-01-31T05:06:24;99502.88;;;0.79;65.31
59063;BME280;44851;45.648;9.004;2023-01-31T05:08:49;99510.47;;;0.82;64.92
59063;BME280;44851;45.648;9.004;2023-01-31T05:11:17;99516.16;;;0.89;64.75
59063;BME280;44851;45.648;9.004;2023-01-31T05:13:42;99522.63;;;0.77;64.80
59063;BME280;44851;45.648;9.004;2023-01-31T05:16:10;99522.53;;;0.80;64.88
59063;BME280;44851;45.648;9.004;2023-01-31T05:18:37;99521.75;;;0.78;64.71
59063;BME280;44851;45.648;9.004;2023-01-31T05:21:04;99522.00;;;0.72;65.34
59063;BME280;44851;45.648;9.004;2023-01-31T05:23:30;99523.41;;;0.79;64.70
59063;BME280;44851;45.648;9.004;2023-01-31T05:25:56;99523.66;;;0.73;64.33
59063;BME280;44851;45.648;9.004;2023-01-31T05:28:22;99525.31;;;0.74;64.96
59063;BME280;44851;45.648;9.004;2023-01-31T05:30:48;99522.72;;;0.76;65.10
59063;BME280;44851;45.648;9.004;2023-01-31T05:33:13;99524.50;;;0.74;64.62
59063;BME280;44851;45.648;9.004;2023-01-31T05:35:38;99525.47;;;0.71;64.57
59063;BME280;44851;45.648;9.004;2023-01-31T05:38:06;99531.50;;;0.70;64.89
59063;BME280;44851;45.648;9.004;2023-01-31T05:40:31;99527.13;;;0.72;64.30
59063;BME280;44851;45.648;9.004;2023-01-31T05:42:58;99535.38;;;0.58;64.96
59063;BME280;44851;45.648;9.004;2023-01-31T05:45:27;99536.38;;;0.56;65.24
59063;BME280;44851;45.648;9.004;2023-01-31T05:47:53;99533.63;;;0.60;65.15
59063;BME280;44851;45.648;9.004;2023-01-31T05:50:18;99540.47;;;0.60;64.93
59063;BME280;44851;45.648;9.004;2023-01-31T05:52:56;99537.25;;;0.55;64.65
59063;BME280;44851;45.648;9.004;2023-01-31T05:55:24;99541.78;;;0.48;65.45
59063;BME280;44851;45.648;9.004;2023-01-31T05:57:51;99544.06;;;0.56;65.25
59063;BME280;44851;45.648;9.004;2023-01-31T06:00:17;99548.06;;;0.41;66.22
59063;BME280;44851;45.648;9.004;2023-01-31T06:02:42;99548.44;;;0.54;65.59
59063;BME280;44851;45.648;9.004;2023-01-31T06:05:08;99545.06;;;0.52;65.00
59063;BME280;44851;45.648;9.004;2023-01-31T06:07:34;99548.91;;;0.42;66.18
59063;BME280;44851;45.648;9.004;2023-01-31T06:09:59;99546.16;;;0.46;65.71
59063;BME280;44851;45.648;9.004;2023-01-31T06:12:25;99555.94;;;0.36;66.82
59063;BME280;44851;45.648;9.004;2023-01-31T06:14:50;99557.38;;;0.44;66.12
59063;BME280;44851;45.648;9.004;2023-01-31T06:17:16;99562.69;;;0.39;66.08
59063;BME280;44851;45.648;9.004;2023-01-31T06:19:41;99563.59;;;0.38;66.22
59063;BME280;44851;45.648;9.004;2023-01-31T06:22:07;99564.19;;;0.45;65.97
59063;BME280;44851;45.648;9.004;2023-01-31T06:24:32;99553.19;;;0.41;65.89
59063;BME280;44851;45.648;9.004;2023-01-31T06:26:58;99552.38;;;0.41;65.58
59063;BME280;44851;45.648;9.004;2023-01-31T06:29:23;99557.59;;;0.37;65.03
59063;BME280;44851;45.648;9.004;2023-01-31T06:31:48;99557.00;;;0.53;65.64
59063;BME280;44851;45.648;9.004;2023-01-31T06:34:14;99551.44;;;0.43;65.24
59063;BME280;44851;45.648;9.004;2023-01-31T06:36:39;99557.75;;;0.34;65.50
59063;BME280;44851;45.648;9.004;2023-01-31T06:39:05;99561.50;;;0.26;64.81
59063;BME280;44851;45.648;9.004;2023-01-31T06:41:30;99565.72;;;0.27;65.08
59063;BME280;44851;45.648;9.004;2023-01-31T06:43:55;99566.34;;;0.33;65.28
59063;BME280;44851;45.648;9.004;2023-01-31T06:46:21;99561.06;;;0.36;64.69
59063;BME280;44851;45.648;9.004;2023-01-31T06:48:47;99565.63;;;0.30;64.92
59063;BME280;44851;45.648;9.004;2023-01-31T06:51:14;99574.31;;;0.26;64.55
59063;BME280;44851;45.648;9.004;2023-01-31T06:53:39;99565.03;;;0.23;65.28
59063;BME280;44851;45.648;9.004;2023-01-31T06:56:05;99570.16;;;0.23;65.17
59063;BME280;44851;45.648;9.004;2023-01-31T06:58:31;99571.72;;;0.27;65.12
59063;BME280;44851;45.648;9.004;2023-01-31T07:01:03;99578.38;;;0.31;64.88
59063;BME280;44851;45.648;9.004;2023-01-31T07:03:28;99575.22;;;0.25;64.71
59063;BME280;44851;45.648;9.004;2023-01-31T07:05:54;99569.56;;;0.38;65.01
59063;BME280;44851;45.648;9.004;2023-01-31T07:08:19;99574.78;;;0.35;64.63
59063;BME280;44851;45.648;9.004;2023-01-31T07:10:47;99577.91;;;0.44;64.94
59063;BME280;44851;45.648;9.004;2023-01-31T07:13:12;99580.09;;;0.31;64.99
59063;BME280;44851;45.648;9.004;2023-01-31T07:15:37;99583.50;;;0.31;65.00
59063;BME280;44851;45.648;9.004;2023-01-31T07:18:02;99587.09;;;0.27;64.54
59063;BME280;44851;45.648;9.004;2023-01-31T07:20:28;99590.19;;;0.35;64.27
59063;BME280;44851;45.648;9.004;2023-01-31T07:22:57;99588.38;;;0.37;64.93
59063;BME280;44851;45.648;9.004;2023-01-31T07:25:24;99577.72;;;0.26;64.69
59063;BME280;44851;45.648;9.004;2023-01-31T07:27:49;99581.47;;;0.39;64.91
59063;BME280;44851;45.648;9.004;2023-01-31T07:30:15;99585.78;;;0.39;64.49
59063;BME280;44851;45.648;9.004;2023-01-31T07:32:40;99594.94;;;0.45;64.33
59063;BME280;44851;45.648;9.004;2023-01-31T07:35:06;99585.34;;;0.50;64.61
59063;BME280;44851;45.648;9.004;2023-01-31T07:37:32;99581.13;;;0.49;64.84
59063;BME280;44851;45.648;9.004;2023-01-31T07:39:57;99589.31;;;0.57;65.32
59063;BME280;44851;45.648;9.004;2023-01-31T07:42:23;99597.91;;;0.56;65.33
59063;BME280;44851;45.648;9.004;2023-01-31T07:44:48;99606.50;;;0.55;65.89
59063;BME280;44851;45.648;9.004;2023-01-31T07:47:13;99607.94;;;0.62;65.60
59063;BME280;44851;45.648;9.004;2023-01-31T07:49:39;99607.94;;;0.62;65.44
59063;BME280;44851;45.648;9.004;2023-01-31T07:52:04;99613.56;;;0.50;65.61
59063;BME280;44851;45.648;9.004;2023-01-31T07:54:29;99625.47;;;0.51;65.75
59063;BME280;44851;45.648;9.004;2023-01-31T07:56:55;99624.34;;;0.58;65.91
59063;BME280;44851;45.648;9.004;2023-01-31T07:59:20;99633.00;;;0.55;66.07
59063;BME280;44851;45.648;9.004;2023-01-31T08:01:45;99631.34;;;0.54;66.67
59063;BME280;44851;45.648;9.004;2023-01-31T08:04:40;99639.91;;;0.53;66.81
59063;BME280;44851;45.648;9.004;2023-01-31T08:07:05;99640.38;;;0.63;66.23
59063;BME280;44851;45.648;9.004;2023-01-31T08:09:31;99651.34;;;0.67;66.33
59063;BME280;44851;45.648;9.004;2023-01-31T08:11:57;99646.69;;;0.76;66.36
59063;BME280;44851;45.648;9.004;2023-01-31T08:14:22;99651.84;;;0.76;65.97
59063;BME280;44851;45.648;9.004;2023-01-31T08:16:50;99653.38;;;0.80;65.99
59063;BME280;44851;45.648;9.004;2023-01-31T08:19:16;99655.56;;;0.89;65.79
59063;BME280;44851;45.648;9.004;2023-01-31T08:21:41;99664.91;;;0.90;66.32
59063;BME280;44851;45.648;9.004;2023-01-31T08:24:07;99669.94;;;0.94;65.77
59063;BME280;44851;45.648;9.004;2023-01-31T08:26:32;99675.72;;;0.99;66.05
59063;BME280;44851;45.648;9.004;2023-01-31T08:28:57;99679.13;;;0.99;65.79
59063;BME280;44851;45.648;9.004;2023-01-31T08:31:25;99682.88;;;1.12;66.01
59063;BME280;44851;45.648;9.004;2023-01-31T08:33:51;99680.16;;;1.15;66.46
59063;BME280;44851;45.648;9.004;2023-01-31T08:36:22;99677.28;;;1.23;66.05
59063;BME280;44851;45.648;9.004;2023-01-31T08:38:49;99679.78;;;1.25;66.21
59063;BME280;44851;45.648;9.004;2023-01-31T08:41:16;99681.91;;;1.35;65.79
59063;BME280;44851;45.648;9.004;2023-01-31T08:43:42;99684.84;;;1.47;66.23
59063;BME280;44851;45.648;9.004;2023-01-31T08:46:08;99680.34;;;1.52;65.38
59063;BME280;44851;45.648;9.004;2023-01-31T08:48:35;99678.69;;;1.71;65.56
59063;BME280;44851;45.648;9.004;2023-01-31T08:51:05;99693.44;;;2.05;65.04
59063;BME280;44851;45.648;9.004;2023-01-31T08:53:31;99692.19;;;2.14;65.25
59063;BME280;44851;45.648;9.004;2023-01-31T08:56:01;99689.59;;;2.33;64.87
59063;BME280;44851;45.648;9.004;2023-01-31T08:58:27;99684.78;;;2.63;65.15
59063;BME280;44851;45.648;9.004;2023-01-31T09:00:53;99684.53;;;2.86;65.52
59063;BME280;44851;45.648;9.004;2023-01-31T09:03:18;99692.50;;;3.34;65.45
59063;BME280;44851;45.648;9.004;2023-01-31T09:05:43;99691.94;;;3.79;64.57
59063;BME280;44851;45.648;9.004;2023-01-31T09:08:10;99693.59;;;4.29;63.36
59063;BME280;44851;45.648;9.004;2023-01-31T09:10:36;99681.75;;;4.56;61.92
59063;BME280;44851;45.648;9.004;2023-01-31T09:13:01;99689.00;;;4.81;60.79
59063;BME280;44851;45.648;9.004;2023-01-31T09:15:27;99690.38;;;5.03;59.29
59063;BME280;44851;45.648;9.004;2023-01-31T09:17:52;99686.28;;;5.43;59.41
59063;BME280;44851;45.648;9.004;2023-01-31T09:20:17;99677.16;;;5.37;56.32
59063;BME280;44851;45.648;9.004;2023-01-31T09:22:43;99694.28;;;5.83;59.04
59063;BME280;44851;45.648;9.004;2023-01-31T09:25:09;99692.38;;;6.01;58.33
59063;BME280;44851;45.648;9.004;2023-01-31T09:27:36;99695.56;;;6.33;56.55
59063;BME280;44851;45.648;9.004;2023-01-31T09:30:04;99703.19;;;6.63;55.78
59063;BME280;44851;45.648;9.004;2023-01-31T09:32:30;99701.97;;;6.68;54.07
59063;BME280;44851;45.648;9.004;2023-01-31T09:34:57;99708.25;;;6.91;54.01
59063;BME280;44851;45.648;9.004;2023-01-31T09:37:22;99704.03;;;7.30;56.16
59063;BME280;44851;45.648;9.004;2023-01-31T09:39:47;99713.94;;;7.24;53.38
59063;BME280;44851;45.648;9.004;2023-01-31T09:42:54;99701.63;;;7.40;52.93
59063;BME280;44851;45.648;9.004;2023-01-31T09:45:27;99704.03;;;7.43;50.94
59063;BME280;44851;45.648;9.004;2023-01-31T09:47:55;99708.72;;;7.63;52.28
59063;BME280;44851;45.648;9.004;2023-01-31T09:52:52;99711.97;;;7.92;50.71
59063;BME280;44851;45.648;9.004;2023-01-31T09:55:35;99719.66;;;7.94;49.70
59063;BME280;44851;45.648;9.004;2023-01-31T10:06:35;99729.66;;;8.73;49.54
59063;BME280;44851;45.648;9.004;2023-01-31T10:11:49;99726.06;;;9.11;50.32
59063;BME280;44851;45.648;9.004;2023-01-31T10:14:29;99739.31;;;9.19;48.31
59063;BME280;44851;45.648;9.004;2023-01-31T10:17:02;99738.53;;;9.30;48.26
59063;BME280;44851;45.648;9.004;2023-01-31T10:19:36;99733.41;;;9.17;48.24
59063;BME280;44851;45.648;9.004;2023-01-31T10:22:07;99735.31;;;9.39;49.32
59063;BME280;44851;45.648;9.004;2023-01-31T10:24:52;99734.50;;;9.50;48.16
59063;BME280;44851;45.648;9.004;2023-01-31T10:29:54;99737.63;;;9.77;47.59
59063;BME280;44851;45.648;9.004;2023-01-31T10:32:37;99729.13;;;9.75;46.59
59063;BME280;44851;45.648;9.004;2023-01-31T10:37:45;99723.31;;;9.94;46.18
59063;BME280;44851;45.648;9.004;2023-01-31T10:40:18;99717.19;;;10.18;46.52
59063;BME280;44851;45.648;9.004;2023-01-31T10:42:53;99709.94;;;10.21;46.58
59063;BME280;44851;45.648;9.004;2023-01-31T10:45:24;99708.28;;;10.31;45.93
59063;BME280;44851;45.648;9.004;2023-01-31T10:48:30;99700.59;;;10.19;45.85
59063;BME280;44851;45.648;9.004;2023-01-31T10:53:56;99697.88;;;10.20;45.45
59063;BME280;44851;45.648;9.004;2023-01-31T10:56:44;99684.97;;;10.19;45.62
59063;BME280;44851;45.648;9.004;2023-01-31T10:59:18;99684.22;;;10.28;45.29
59063;BME280;44851;45.648;9.004;2023-01-31T11:01:45;99679.84;;;10.40;45.07
59063;BME280;44851;45.648;9.004;2023-01-31T11:04:24;99674.94;;;10.57;44.30
59063;BME280;44851;45.648;9.004;2023-01-31T11:06:52;99668.63;;;10.82;45.47
59063;BME280;44851;45.648;9.004;2023-01-31T11:09:19;99665.00;;;10.95;45.21
59063;BME280;44851;45.648;9.004;2023-01-31T11:11:57;99666.06;;;10.92;43.95
59063;BME280;44851;45.648;9.004;2023-01-31T11:14:23;99672.28;;;10.69;44.36
59063;BME280;44851;45.648;9.004;2023-01-31T11:17:02;99659.44;;;10.56;44.39
59063;BME280;44851;45.648;9.004;2023-01-31T11:21:58;99658.22;;;10.60;44.91
59063;BME280;44851;45.648;9.004;2023-01-31T11:24:26;99651.63;;;10.56;44.78
59063;BME280;44851;45.648;9.004;2023-01-31T11:26:56;99649.59;;;10.92;45.12
59063;BME280;44851;45.648;9.004;2023-01-31T11:29:27;99646.94;;;11.03;45.22
59063;BME280;44851;45.648;9.004;2023-01-31T11:31:54;99645.59;;;10.88;44.28
59063;BME280;44851;45.648;9.004;2023-01-31T11:34:28;99647.56;;;10.95;43.14
59063;BME280;44851;45.648;9.004;2023-01-31T11:37:20;99632.63;;;11.18;43.76
59063;BME280;44851;45.648;9.004;2023-01-31T11:39:57;99629.69;;;11.11;43.86
59063;BME280;44851;45.648;9.004;2023-01-31T11:42:24;99626.13;;;11.33;43.18
59063;BME280;44851;45.648;9.004;2023-01-31T11:47:46;99631.97;;;11.47;42.62
59063;BME280;44851;45.648;9.004;2023-01-31T11:50:21;99637.19;;;11.47;41.81
59063;BME280;44851;45.648;9.004;2023-01-31T11:53:01;99635.63;;;11.65;42.31
59063;BME280;44851;45.648;9.004;2023-01-31T11:55:35;99626.91;;;11.55;42.43
59063;BME280;44851;45.648;9.004;2023-01-31T11:58:08;99626.84;;;11.66;42.92
59063;BME280;44851;45.648;9.004;2023-01-31T12:00:50;99616.38;;;11.66;43.51
59063;BME280;44851;45.648;9.004;2023-01-31T12:03:17;99620.06;;;11.84;43.33
59063;BME280;44851;45.648;9.004;2023-01-31T12:05:45;99612.09;;;11.96;42.45
59063;BME280;44851;45.648;9.004;2023-01-31T12:08:30;99605.34;;;11.83;41.72
59063;BME280;44851;45.648;9.004;2023-01-31T12:10:57;99601.44;;;12.08;41.71
59063;BME280;44851;45.648;9.004;2023-01-31T12:13:23;99598.53;;;12.02;42.05
59063;BME280;44851;45.648;9.004;2023-01-31T12:26:19;99573.00;;;12.15;40.97
59063;BME280;44851;45.648;9.004;2023-01-31T12:34:06;99564.72;;;12.20;41.48
59063;BME280;44851;45.648;9.004;2023-01-31T12:42:28;99550.31;;;12.44;42.32
59063;BME280;44851;45.648;9.004;2023-01-31T12:48:02;99543.44;;;12.63;41.12
59063;BME280;44851;45.648;9.004;2023-01-31T12:50:49;99544.25;;;12.34;39.81
59063;BME280;44851;45.648;9.004;2023-01-31T13:01:36;99532.69;;;12.47;40.24
59063;BME280;44851;45.648;9.004;2023-01-31T13:06:53;99537.09;;;12.56;40.63
59063;BME280;44851;45.648;9.004;2023-01-31T13:09:31;99524.16;;;12.35;40.00
59063;BME280;44851;45.648;9.004;2023-01-31T13:12:05;99530.34;;;12.24;40.32
59063;BME280;44851;45.648;9.004;2023-01-31T13:14:36;99518.81;;;12.17;40.70
59063;BME280;44851;45.648;9.004;2023-01-31T13:17:07;99514.25;;;12.19;41.21
59063;BME280;44851;45.648;9.004;2023-01-31T13:22:25;99504.75;;;11.99;40.88
59063;BME280;44851;45.648;9.004;2023-01-31T13:25:43;99499.41;;;12.10;41.66
59063;BME280;44851;45.648;9.004;2023-01-31T13:27:46;99500.91;;;12.12;41.48
59063;BME280;44851;45.648;9.004;2023-01-31T13:30:32;99492.78;;;12.25;41.37
59063;BME280;44851;45.648;9.004;2023-01-31T13:33:08;99489.78;;;12.20;40.02
59063;BME280;44851;45.648;9.004;2023-01-31T13:35:40;99483.72;;;12.39;42.32
59063;BME280;44851;45.648;9.004;2023-01-31T13:38:13;99476.84;;;12.48;40.47
59063;BME280;44851;45.648;9.004;2023-01-31T13:40:51;99481.25;;;12.37;39.40
59063;BME280;44851;45.648;9.004;2023-01-31T13:43:18;99484.53;;;12.39;40.01
59063;BME280;44851;45.648;9.004;2023-01-31T13:45:48;99482.34;;;12.25;39.79
59063;BME280;44851;45.648;9.004;2023-01-31T13:48:25;99488.53;;;12.05;40.10
59063;BME280;44851;45.648;9.004;2023-01-31T13:50:58;99490.13;;;11.86;40.00
59063;BME280;44851;45.648;9.004;2023-01-31T13:53:32;99483.94;;;11.87;41.01
59063;BME280;44851;45.648;9.004;2023-01-31T13:56:01;99475.13;;;11.69;41.59
59063;BME280;44851;45.648;9.004;2023-01-31T13:58:33;99473.06;;;11.82;41.60
59063;BME280;44851;45.648;9.004;2023-01-31T14:01:14;99467.44;;;11.87;41.24
59063;BME280;44851;45.648;9.004;2023-01-31T14:06:54;99471.22;;;11.44;41.48
59063;BME280;44851;45.648;9.004;2023-01-31T14:09:44;99467.63;;;11.35;41.66
59063;BME280;44851;45.648;9.004;2023-01-31T14:14:48;99475.47;;;11.35;42.08
59063;BME280;44851;45.648;9.004;2023-01-31T14:22:24;99467.03;;;11.22;42.57
59063;BME280;44851;45.648;9.004;2023-01-31T14:41:07;99451.22;;;10.63;42.52
59063;BME280;44851;45.648;9.004;2023-01-31T14:49:40;99455.47;;;10.22;42.37
59063;BME280;44851;45.648;9.004;2023-01-31T14:52:35;99457.50;;;10.18;42.43
59063;BME280;44851;45.648;9.004;2023-01-31T14:58:01;99459.94;;;9.99;43.76
59063;BME280;44851;45.648;9.004;2023-01-31T15:00:35;99462.28;;;10.13;43.42
59063;BME280;44851;45.648;9.004;2023-01-31T15:53:33;99449.44;;;9.57;42.57
59063;BME280;44851;45.648;9.004;2023-01-31T15:55:59;99454.19;;;9.41;42.03
59063;BME280;44851;45.648;9.004;2023-01-31T15:58:29;99450.16;;;9.37;41.88
59063;BME280;44851;45.648;9.004;2023-01-31T16:01:00;99454.91;;;9.32;41.97
59063;BME280;44851;45.648;9.004;2023-01-31T16:03:29;99447.81;;;9.34;41.89
59063;BME280;44851;45.648;9.004;2023-01-31T16:05:57;99453.72;;;9.24;42.18
59063;BME280;44851;45.648;9.004;2023-01-31T16:08:35;99448.72;;;9.21;41.89
59063;BME280;44851;45.648;9.004;2023-01-31T16:11:04;99450.84;;;9.16;42.11
59063;BME280;44851;45.648;9.004;2023-01-31T16:13:30;99451.13;;;9.13;42.19
59063;BME280;44851;45.648;9.004;2023-01-31T16:15:58;99443.31;;;9.02;42.55
59063;BME280;44851;45.648;9.004;2023-01-31T16:18:24;99448.75;;;8.99;42.48
59063;BME280;44851;45.648;9.004;2023-01-31T16:20:52;99450.53;;;8.98;42.78
59063;BME280;44851;45.648;9.004;2023-01-31T16:23:25;99448.53;;;8.91;42.87
59063;BME280;44851;45.648;9.004;2023-01-31T16:26:13;99457.38;;;8.88;42.83
59063;BME280;44851;45.648;9.004;2023-01-31T16:31:12;99464.53;;;8.62;44.63